Time;durP1;ratioP1;P1;durP2;ratioP2;P2;SDS_P1;SDS_P2;PMS_P1;PMS_P2;Temp;Humidity;BMP_temperature;BMP_pressure;BME280_temperature;BME280_humidity;BME280_pressure;Samples;Min_cycle;Max_cycle;Signal;HPM_P1;HPM_P2
2021/09/09 00:00:04;;;;;;;7.40;6.38;;;;;;;17.38;57.56;100252.31;5032278;28;20053;-81
2021/09/09 00:02:37;;;;;;;;;;;;;;;17.31;57.35;100248.44;5032247;28;20128;-79
2021/09/09 00:05:08;;;;;;;7.13;5.55;;;;;;;17.31;57.60;100241.41;5032322;28;19932;-81
2021/09/09 00:07:35;;;;;;;7.50;6.07;;;;;;;17.42;56.90;100245.84;5031764;28;20053;-81
2021/09/09 00:10:05;;;;;;;7.93;5.53;;;;;;;17.51;56.60;100239.81;5026340;28;20092;-79
2021/09/09 00:12:32;;;;;;;9.32;6.20;;;;;;;17.55;56.26;100250.00;5015152;28;20037;-78
2021/09/09 00:15:00;;;;;;;12.52;5.85;;;;;;;17.43;56.79;100243.06;5032451;28;20041;-79
2021/09/09 00:17:27;;;;;;;9.80;6.63;;;;;;;17.52;56.68;100244.13;5032360;28;20033;-79
2021/09/09 00:19:56;;;;;;;9.68;6.25;;;;;;;17.59;56.19;100250.63;5030546;28;20042;-79
2021/09/09 00:22:23;;;;;;;7.40;6.35;;;;;;;17.57;56.21;100251.69;5032319;28;20407;-79
2021/09/09 00:24:50;;;;;;;7.43;5.65;;;;;;;17.56;56.24;100248.22;5034638;28;20099;-79
2021/09/09 00:27:17;;;;;;;10.25;5.82;;;;;;;17.51;56.80;100250.38;5035865;28;20128;-80
2021/09/09 00:29:46;;;;;;;8.45;6.13;;;;;;;17.51;56.89;100240.66;5035251;28;20045;-80
2021/09/09 00:32:13;;;;;;;6.93;6.30;;;;;;;17.48;57.14;100246.19;5034091;28;20099;-81
2021/09/09 00:34:41;;;;;;;9.07;6.25;;;;;;;17.40;57.48;100247.75;5035151;28;20107;-81
2021/09/09 00:37:07;;;;;;;11.15;6.25;;;;;;;17.43;57.37;100250.16;5035966;28;20046;-81
2021/09/09 00:39:34;;;;;;;7.63;6.35;;;;;;;17.41;57.49;100252.88;5034226;28;20037;-81
2021/09/09 00:42:01;;;;;;;11.52;6.72;;;;;;;17.39;57.93;100253.97;5035416;28;20041;-82
2021/09/09 00:44:28;;;;;;;11.55;6.18;;;;;;;17.37;58.11;100253.28;5035867;28;20174;-80
2021/09/09 00:47:03;;;;;;;8.90;5.57;;;;;;;17.35;58.27;100252.53;5035384;28;20088;-81
2021/09/09 00:49:33;;;;;;;6.38;5.50;;;;;;;17.26;58.32;100243.56;5035739;28;20079;-80
2021/09/09 00:52:01;;;;;;;10.02;5.70;;;;;;;17.08;58.92;100242.34;5044811;28;20041;-80
2021/09/09 00:54:28;;;;;;;9.50;6.65;;;;;;;17.01;59.09;100245.44;5036590;28;20423;-80
2021/09/09 00:56:55;;;;;;;9.70;6.30;;;;;;;16.94;59.24;100243.41;5035587;28;20508;-78
2021/09/09 00:59:23;;;;;;;9.63;5.80;;;;;;;16.93;59.24;100244.34;5035441;28;20076;-79
2021/09/09 01:01:49;;;;;;;6.78;5.22;;;;;;;16.87;59.24;100244.81;5036534;28;20034;-81
2021/09/09 01:04:19;;;;;;;9.00;6.50;;;;;;;16.84;59.63;100239.81;5036367;28;20052;-79
2021/09/09 01:06:48;;;;;;;7.22;5.88;;;;;;;16.84;59.50;100245.06;5035536;28;20046;-78
2021/09/09 01:09:15;;;;;;;12.27;5.75;;;;;;;16.61;60.31;100244.97;5035691;28;20049;-79
2021/09/09 01:11:43;;;;;;;8.60;6.15;;;;;;;16.54;60.49;100250.81;5035265;28;20136;-78
2021/09/09 01:14:13;;;;;;;11.85;6.13;;;;;;;16.54;60.55;100246.38;5034931;28;20554;-80
2021/09/09 01:16:41;;;;;;;7.45;5.93;;;;;;;16.46;61.10;100248.75;5027042;28;20521;-80
2021/09/09 01:19:09;;;;;;;6.80;5.68;;;;;;;16.57;60.59;100253.22;5031938;28;20038;-79
2021/09/09 01:21:37;;;;;;;11.50;6.80;;;;;;;16.51;60.66;100251.88;5033085;28;20052;-78
2021/09/09 01:24:13;;;;;;;8.82;6.53;;;;;;;16.50;60.46;100252.81;5016647;28;20072;-78
2021/09/09 01:26:54;;;;;;;7.82;5.72;;;;;;;16.40;60.81;100257.91;5035051;28;20045;-79
2021/09/09 01:29:24;;;;;;;6.88;6.18;;;;;;;16.57;60.34;100254.06;5034781;28;20092;-78
2021/09/09 01:31:51;;;;;;;8.07;5.88;;;;;;;16.54;60.72;100253.44;5035212;28;20447;-79
2021/09/09 01:34:19;;;;;;;13.88;6.13;;;;;;;16.51;60.67;100254.50;5034639;28;20096;-79
2021/09/09 01:36:46;;;;;;;12.07;7.85;;;;;;;16.53;60.55;100252.59;5034267;28;20088;-79
2021/09/09 01:39:12;;;;;;;7.55;5.68;;;;;;;16.56;60.38;100248.88;5033834;28;20063;-80
2021/09/09 01:41:40;;;;;;;6.75;5.93;;;;;;;16.52;60.46;100245.66;5034769;28;20046;-79
2021/09/09 01:44:07;;;;;;;8.90;5.57;;;;;;;16.55;60.50;100249.84;5033231;28;20065;-79
2021/09/09 01:46:34;;;;;;;9.82;6.05;;;;;;;16.58;60.42;100250.47;5034188;28;20065;-79
2021/09/09 01:49:01;;;;;;;11.55;5.95;;;;;;;16.67;59.76;100241.03;5034054;28;20057;-79
2021/09/09 01:51:29;;;;;;;8.75;6.65;;;;;;;16.67;59.90;100244.53;5034090;28;20069;-80
2021/09/09 01:53:56;;;;;;;9.52;6.40;;;;;;;16.51;60.65;100243.97;5034305;28;20049;-79
2021/09/09 01:56:23;;;;;;;6.95;6.25;;;;;;;16.42;60.55;100247.31;5034038;28;20081;-80
2021/09/09 01:58:50;;;;;;;7.13;6.05;;;;;;;16.53;60.37;100239.44;5034533;28;20063;-80
2021/09/09 02:01:18;;;;;;;8.30;6.10;;;;;;;16.70;59.49;100236.38;5033798;28;20037;-80
2021/09/09 02:03:46;;;;;;;7.88;5.82;;;;;;;16.81;59.25;100238.22;5034132;28;20064;-80
2021/09/09 02:06:13;;;;;;;7.18;5.35;;;;;;;16.68;59.34;100235.66;5033289;28;20089;-80
2021/09/09 02:08:40;;;;;;;9.60;6.20;;;;;;;16.65;59.53;100230.63;5033855;28;20056;-81
2021/09/09 02:11:09;;;;;;;7.03;5.70;;;;;;;16.65;59.43;100235.88;5034444;28;20049;-79
2021/09/09 02:13:36;;;;;;;12.00;6.47;;;;;;;16.59;59.68;100230.25;5033307;28;20049;-79
2021/09/09 02:16:04;;;;;;;8.32;5.47;;;;;;;16.49;60.05;100230.09;5033961;28;20049;-80
2021/09/09 02:18:31;;;;;;;8.15;6.38;;;;;;;16.48;60.16;100234.53;5033475;28;20045;-79
2021/09/09 02:20:58;;;;;;;8.82;6.70;;;;;;;16.39;60.67;100239.63;5033925;28;20096;-79
2021/09/09 02:23:25;;;;;;;9.07;5.88;;;;;;;16.21;61.35;100234.78;5033474;28;20037;-78
2021/09/09 02:25:54;;;;;;;10.15;7.13;;;;;;;16.12;61.70;100235.44;5033649;28;20053;-79
2021/09/09 02:28:20;;;;;;;7.57;6.78;;;;;;;16.16;61.57;100239.53;5015064;28;20072;-79
2021/09/09 02:30:47;;;;;;;10.63;6.13;;;;;;;15.94;62.50;100250.78;5019699;28;20065;-79
2021/09/09 02:33:14;;;;;;;7.85;6.63;;;;;;;15.35;64.49;100249.75;5033475;28;20037;-79
2021/09/09 02:35:41;;;;;;;7.68;6.88;;;;;;;14.98;66.67;100259.31;5033161;28;20107;-79
2021/09/09 02:38:08;;;;;;;11.65;10.07;;;;;;;15.66;65.49;100254.56;5033359;28;20042;-80
2021/09/09 02:40:35;;;;;;;13.57;10.60;;;;;;;15.48;66.13;100263.69;5029300;28;20045;-79
2021/09/09 02:43:01;;;;;;;14.13;10.07;;;;;;;15.31;66.62;100261.41;5030380;28;20042;-79
2021/09/09 02:45:28;;;;;;;10.70;9.48;;;;;;;15.18;67.31;100261.41;5033355;28;20095;-79
2021/09/09 02:47:55;;;;;;;12.45;9.57;;;;;;;15.33;66.81;100259.50;5032536;28;20078;-79
2021/09/09 02:50:22;;;;;;;12.30;10.85;;;;;;;15.41;66.36;100262.44;5032184;28;20485;-81
2021/09/09 02:52:49;;;;;;;13.95;11.13;;;;;;;15.54;65.75;100268.50;5033385;28;20099;-79
2021/09/09 02:55:15;;;;;;;15.05;11.40;;;;;;;15.60;65.51;100257.56;5032818;28;20041;-79
2021/09/09 02:57:42;;;;;;;13.88;11.18;;;;;;;15.57;65.80;100257.78;5032940;28;20044;-79
2021/09/09 03:00:10;;;;;;;16.98;13.75;;;;;;;15.63;65.38;100262.66;5031950;28;20079;-81
2021/09/09 03:02:38;;;;;;;15.40;13.90;;;;;;;15.69;65.05;100250.84;5033105;28;20045;-81
2021/09/09 03:05:06;;;;;;;11.60;9.95;;;;;;;15.49;65.91;100261.91;5032688;28;20049;-79
2021/09/09 03:07:33;;;;;;;11.95;10.75;;;;;;;15.60;65.31;100260.19;5030201;28;20100;-81
2021/09/09 03:10:01;;;;;;;13.63;9.35;;;;;;;15.42;66.04;100251.81;5032999;28;20045;-80
2021/09/09 03:12:28;;;;;;;16.85;9.50;;;;;;;15.26;66.37;100253.00;5032677;28;20041;-80
2021/09/09 03:14:54;;;;;;;13.57;9.85;;;;;;;15.15;66.96;100246.69;5033299;28;20045;-79
2021/09/09 03:17:21;;;;;;;12.30;9.63;;;;;;;15.22;67.09;100246.28;5032469;28;20041;-79
2021/09/09 03:19:48;;;;;;;12.38;8.88;;;;;;;15.13;67.10;100248.59;5033037;28;20044;-78
2021/09/09 03:22:15;;;;;;;11.30;8.77;;;;;;;15.23;66.86;100253.19;5032165;28;20151;-78
2021/09/09 03:24:41;;;;;;;15.02;8.73;;;;;;;15.15;67.00;100246.69;5032714;28;20484;-78
2021/09/09 03:27:08;;;;;;;11.70;8.32;;;;;;;15.06;67.18;100247.31;5032673;28;20081;-77
2021/09/09 03:29:35;;;;;;;13.63;8.48;;;;;;;14.95;67.71;100244.59;5032753;28;20095;-80
2021/09/09 03:32:04;;;;;;;11.73;8.93;;;;;;;15.06;67.41;100243.88;5032553;28;20045;-80
2021/09/09 03:34:31;;;;;;;10.88;8.57;;;;;;;15.26;67.08;100237.25;5032541;28;20527;-80
2021/09/09 03:36:58;;;;;;;9.70;8.48;;;;;;;15.10;67.37;100237.47;5030465;28;20038;-79
2021/09/09 03:39:24;;;;;;;14.82;9.10;;;;;;;15.01;67.65;100233.66;5032276;28;20042;-80
2021/09/09 03:41:52;;;;;;;8.95;8.00;;;;;;;15.17;66.98;100234.28;5032828;28;20054;-80
2021/09/09 03:44:18;;;;;;;14.57;7.97;;;;;;;15.07;67.17;100229.78;5032194;28;20095;-79
2021/09/09 03:46:47;;;;;;;9.27;7.43;;;;;;;15.23;66.19;100222.53;5032958;28;20099;-79
2021/09/09 03:49:14;;;;;;;10.23;8.32;;;;;;;15.23;66.29;100219.06;5032222;28;20061;-79
2021/09/09 03:51:40;;;;;;;14.75;7.47;;;;;;;15.04;67.01;100212.47;5020073;28;20038;-80
2021/09/09 03:54:07;;;;;;;11.27;8.13;;;;;;;15.03;67.13;100213.44;5028935;28;20555;-81
2021/09/09 03:56:34;;;;;;;11.57;7.75;;;;;;;14.90;67.69;100216.03;5032313;28;20045;-80
2021/09/09 03:59:01;;;;;;;9.45;8.15;;;;;;;14.79;68.23;100208.06;5032324;28;20044;-81
2021/09/09 04:01:27;;;;;;;11.93;8.18;;;;;;;14.85;67.81;100207.63;5016596;28;20042;-80
2021/09/09 04:03:55;;;;;;;8.32;7.45;;;;;;;14.78;68.37;100213.41;5031138;28;20420;-81
2021/09/09 04:06:22;;;;;;;9.68;7.53;;;;;;;14.75;68.34;100226.72;5021508;28;20053;-79
2021/09/09 04:08:48;;;;;;;8.63;7.68;;;;;;;14.89;67.69;100230.09;5032434;28;20100;-81
2021/09/09 04:11:15;;;;;;;10.77;7.00;;;;;;;15.00;67.40;100218.88;5036261;28;20107;-82
2021/09/09 04:13:42;;;;;;;11.13;7.30;;;;;;;14.85;67.79;100220.75;5023922;28;20041;-81
2021/09/09 04:16:09;;;;;;;9.32;6.72;;;;;;;14.90;67.79;100218.66;5031488;28;20046;-82
2021/09/09 04:18:37;;;;;;;9.38;6.13;;;;;;;14.97;67.23;100212.97;5015480;28;20046;-79
2021/09/09 04:21:04;;;;;;;6.80;6.18;;;;;;;15.02;66.96;100214.38;5015733;28;20041;-80
2021/09/09 04:23:31;;;;;;;10.63;6.55;;;;;;;15.10;66.47;100217.28;5027030;28;20113;-82
2021/09/09 04:25:58;;;;;;;8.40;6.47;;;;;;;15.10;66.51;100211.22;5035944;28;20151;-80
2021/09/09 04:28:25;;;;;;;7.82;6.13;;;;;;;15.16;66.20;100216.03;5033100;28;20488;-81
2021/09/09 04:30:53;;;;;;;6.68;5.85;;;;;;;15.17;66.02;100220.31;5034503;28;20038;-80
2021/09/09 04:33:22;;;;;;;8.48;6.20;;;;;;;15.26;65.69;100210.97;5035956;28;20038;-79
2021/09/09 04:35:49;;;;;;;7.82;5.93;;;;;;;15.14;66.14;100213.53;5033315;28;20042;-80
2021/09/09 04:38:15;;;;;;;11.52;6.22;;;;;;;15.35;65.26;100211.19;5029957;28;20042;-80
2021/09/09 04:40:42;;;;;;;7.43;6.25;;;;;;;15.27;65.59;100210.03;5031681;28;20045;-80
2021/09/09 04:43:09;;;;;;;11.77;6.45;;;;;;;15.25;66.03;100214.56;5034852;28;20037;-81
2021/09/09 04:45:36;;;;;;;9.45;6.00;;;;;;;15.16;66.31;100210.78;5034236;28;20045;-79
2021/09/09 04:48:03;;;;;;;6.97;6.28;;;;;;;15.27;65.74;100208.25;5030145;28;20136;-78
2021/09/09 04:50:30;;;;;;;13.20;6.93;;;;;;;15.33;65.49;100205.19;5028852;28;20091;-78
2021/09/09 04:52:56;;;;;;;7.45;5.88;;;;;;;15.49;64.63;100204.09;5031117;28;20041;-78
2021/09/09 04:55:23;;;;;;;9.25;6.45;;;;;;;15.59;64.13;100203.34;5030808;28;20095;-78
2021/09/09 04:57:50;;;;;;;7.18;6.28;;;;;;;15.65;63.96;100200.28;5033316;28;20044;-79
2021/09/09 05:00:17;;;;;;;8.10;6.38;;;;;;;15.83;63.25;100199.94;5032360;28;20053;-78
2021/09/09 05:02:43;;;;;;;6.00;5.40;;;;;;;15.99;62.51;100195.25;5036278;28;20541;-87
2021/09/09 05:05:12;;;;;;;7.07;5.90;;;;;;;16.12;62.09;100203.88;5031423;28;20042;-93
2021/09/09 05:07:41;;;;;;;7.20;6.50;;;;;;;16.26;61.39;100202.88;5030343;28;20571;-93
2021/09/09 05:10:08;;;;;;;7.70;6.53;;;;;;;16.37;61.13;100204.72;5030836;28;20038;-85
2021/09/09 05:12:36;;;;;;;10.82;6.85;;;;;;;16.44;61.07;100208.56;5027472;28;20227;-89
2021/09/09 05:15:03;;;;;;;7.78;5.97;;;;;;;16.39;61.26;100208.06;5033792;28;20068;-79
2021/09/09 05:17:30;;;;;;;11.18;6.18;;;;;;;16.49;61.04;100209.88;5042316;28;20067;-79
2021/09/09 05:19:57;;;;;;;7.25;5.88;;;;;;;16.44;61.14;100206.75;5047278;28;20099;-87
2021/09/09 05:22:24;;;;;;;9.70;6.57;;;;;;;16.50;61.26;100206.28;5031364;28;20037;-80
2021/09/09 05:24:51;;;;;;;7.40;6.28;;;;;;;16.76;60.54;100208.78;5027048;28;20395;-87
2021/09/09 05:27:17;;;;;;;9.38;6.32;;;;;;;16.99;59.65;100207.00;5020081;28;20086;-79
2021/09/09 05:29:44;;;;;;;8.02;6.10;;;;;;;17.12;59.15;100205.13;5028110;28;20046;-80
2021/09/09 05:32:11;;;;;;;6.93;5.78;;;;;;;17.38;58.33;100207.50;5028095;28;20099;-80
2021/09/09 05:34:39;;;;;;;7.65;6.05;;;;;;;17.52;57.78;100207.22;5029197;28;20117;-81
2021/09/09 05:37:06;;;;;;;9.15;6.35;;;;;;;17.73;57.29;100212.63;5027628;28;20056;-80
2021/09/09 05:39:32;;;;;;;11.05;6.57;;;;;;;17.95;56.77;100203.81;5029605;28;20041;-87
2021/09/09 05:42:02;;;;;;;9.75;6.50;;;;;;;18.13;55.77;100198.84;5030763;28;20045;-78
2021/09/09 05:44:29;;;;;;;9.02;6.57;;;;;;;18.19;55.72;100199.19;5029063;28;20041;-79
2021/09/09 05:46:56;;;;;;;10.10;6.00;;;;;;;18.54;54.57;100203.34;5031069;28;20041;-80
2021/09/09 05:49:23;;;;;;;13.43;7.68;;;;;;;18.69;54.37;100206.50;5026005;28;20046;-82
2021/09/09 05:51:50;;;;;;;8.82;6.45;;;;;;;18.88;53.39;100211.06;5030063;28;20041;-78
2021/09/09 05:54:17;;;;;;;9.48;6.13;;;;;;;19.01;53.42;100212.50;5029447;28;20476;-77
2021/09/09 05:56:43;;;;;;;12.07;7.50;;;;;;;19.17;52.71;100214.69;5031564;28;20091;-82
2021/09/09 05:59:10;;;;;;;9.90;7.15;;;;;;;19.48;52.01;100209.38;5028504;28;20049;-80
2021/09/09 06:01:37;;;;;;;9.25;6.35;;;;;;;19.57;51.19;100213.84;5027230;28;20399;-79
2021/09/09 06:04:09;;;;;;;11.13;7.18;;;;;;;19.72;51.03;100211.72;5021626;28;20073;-81
2021/09/09 06:06:36;;;;;;;16.73;6.47;;;;;;;19.75;50.80;100214.06;5023855;28;20069;-81
2021/09/09 06:09:03;;;;;;;8.77;6.07;;;;;;;19.52;53.00;100214.25;5023012;28;20088;-81
2021/09/09 06:11:30;;;;;;;11.75;7.05;;;;;;;19.63;53.67;100208.06;5027105;28;20041;-81
2021/09/09 06:13:57;;;;;;;15.55;7.85;;;;;;;19.60;53.77;100203.88;5031511;28;20053;-82
2021/09/09 06:16:24;;;;;;;15.43;7.45;;;;;;;19.73;53.78;100203.63;5025631;28;20037;-81
2021/09/09 06:18:51;;;;;;;13.38;7.53;;;;;;;19.63;53.26;100208.06;5032962;28;20037;-86
2021/09/09 06:21:19;;;;;;;10.50;7.32;;;;;;;19.75;52.63;100203.47;5030998;28;20443;-84
2021/09/09 06:23:46;;;;;;;10.68;7.05;;;;;;;19.76;52.21;100199.84;5030990;28;20574;-84
2021/09/09 06:26:19;;;;;;;14.73;7.30;;;;;;;19.82;51.77;100202.81;5032509;28;20057;-89
2021/09/09 06:28:47;;;;;;;15.32;7.53;;;;;;;19.85;51.83;100202.53;5022947;28;20871;-85
2021/09/09 06:31:14;;;;;;;14.02;6.95;;;;;;;19.82;52.03;100202.81;5028755;28;20112;-87
2021/09/09 06:33:41;;;;;;;9.38;7.10;;;;;;;19.91;51.78;100200.31;5035918;28;20396;-92
2021/09/09 06:36:08;;;;;;;18.08;7.68;;;;;;;19.95;51.82;100202.53;5033587;28;20030;-85
2021/09/09 06:38:35;;;;;;;14.52;7.22;;;;;;;20.14;51.11;100207.03;5028132;28;20120;-86
2021/09/09 06:41:01;;;;;;;8.57;7.00;;;;;;;20.23;50.24;100211.47;5049099;28;20083;-89
2021/09/09 06:43:30;;;;;;;14.63;7.43;;;;;;;20.46;49.88;100205.91;5035372;28;20048;-95
2021/09/09 06:45:57;;;;;;;16.67;8.05;;;;;;;20.50;50.03;100207.28;5037116;28;20369;-89
2021/09/09 06:48:24;;;;;;;15.30;7.63;;;;;;;20.36;51.53;100209.38;5036204;28;20042;-88
2021/09/09 06:50:51;;;;;;;14.77;8.57;;;;;;;19.88;52.75;100212.00;5031130;28;20037;-80
2021/09/09 06:53:19;;;;;;;14.68;8.88;;;;;;;19.66;53.84;100213.09;5027733;28;20038;-86
2021/09/09 06:55:46;;;;;;;12.57;10.30;;;;;;;19.86;53.68;100206.84;5026040;28;20073;-85
2021/09/09 06:58:13;;;;;;;17.13;9.20;;;;;;;19.58;54.61;100210.25;5026179;28;20042;-87
2021/09/09 07:00:43;;;;;;;11.68;8.68;;;;;;;19.58;54.88;100210.25;5028263;28;20657;-86
2021/09/09 07:03:10;;;;;;;14.45;10.02;;;;;;;19.32;55.68;100210.72;5041778;28;20049;-87
2021/09/09 07:05:37;;;;;;;12.57;11.15;;;;;;;19.17;56.10;100216.47;5020192;28;20411;-89
2021/09/09 07:08:04;;;;;;;16.75;13.50;;;;;;;18.97;56.66;100215.56;5030545;28;20051;-87
2021/09/09 07:10:31;;;;;;;17.45;13.10;;;;;;;18.96;56.20;100216.53;5027448;28;20041;-84
2021/09/09 07:12:57;;;;;;;16.05;12.15;;;;;;;19.24;54.75;100218.47;5025608;28;20091;-83
2021/09/09 07:15:24;;;;;;;29.40;13.85;;;;;;;19.06;55.66;100226.16;5018178;28;20045;-86
2021/09/09 07:17:52;;;;;;;15.30;13.38;;;;;;;19.23;55.88;100227.38;5019257;28;20105;-87
2021/09/09 07:20:19;;;;;;;18.92;13.02;;;;;;;19.21;56.19;100223.19;5027608;28;20538;-92
2021/09/09 07:22:46;;;;;;;23.25;14.13;;;;;;;19.56;55.22;100217.47;5026854;28;20034;-90
2021/09/09 07:25:13;;;;;;;20.00;15.23;;;;;;;19.35;56.01;100223.66;5023226;28;20037;-91
2021/09/09 07:27:41;;;;;;;24.33;14.60;;;;;;;19.51;55.46;100224.97;5031957;28;20045;-93
2021/09/09 07:30:08;;;;;;;18.05;14.38;;;;;;;19.21;56.04;100234.59;5036191;28;20087;-92
2021/09/09 07:32:36;;;;;;;18.67;13.93;;;;;;;19.26;56.15;100242.13;5029692;28;20061;-90
2021/09/09 07:35:04;;;;;;;16.75;14.18;;;;;;;19.28;56.31;100238.41;5026141;28;20049;-91
2021/09/09 07:37:31;;;;;;;14.48;12.65;;;;;;;18.98;56.67;100241.84;5019111;28;20045;-80
2021/09/09 07:39:59;;;;;;;22.55;13.88;;;;;;;19.33;55.80;100238.84;5021510;28;20436;-82
2021/09/09 07:42:25;;;;;;;24.00;13.40;;;;;;;19.64;55.26;100230.88;5022581;28;20072;-84
2021/09/09 07:44:52;;;;;;;17.50;13.52;;;;;;;19.78;54.56;100237.59;5026682;28;20042;-80
2021/09/09 07:47:21;;;;;;;15.88;12.85;;;;;;;19.57;54.97;100235.84;5024579;28;20048;-84
2021/09/09 07:49:48;;;;;;;23.98;12.82;;;;;;;19.57;55.16;100235.00;5026349;28;20073;-83
2021/09/09 07:52:15;;;;;;;17.00;12.38;;;;;;;19.95;54.16;100241.38;5023884;28;20046;-83
2021/09/09 07:54:41;;;;;;;17.00;13.57;;;;;;;19.68;54.62;100236.75;5025472;28;20095;-84
2021/09/09 07:57:08;;;;;;;18.65;12.05;;;;;;;19.74;54.70;100244.97;5021338;28;20099;-82
2021/09/09 07:59:36;;;;;;;19.98;14.23;;;;;;;20.00;53.84;100236.53;5020795;28;20050;-85
2021/09/09 08:02:03;;;;;;;19.05;12.80;;;;;;;19.49;54.94;100237.47;5023532;28;20493;-82
2021/09/09 08:04:30;;;;;;;19.00;12.30;;;;;;;19.88;53.61;100241.09;5020785;28;20489;-83
2021/09/09 08:06:57;;;;;;;15.32;11.95;;;;;;;20.17;53.31;100241.13;5022783;28;20045;-82
2021/09/09 08:09:24;;;;;;;21.73;11.90;;;;;;;20.92;50.78;100239.56;5022959;28;20485;-84
2021/09/09 08:11:51;;;;;;;18.58;12.38;;;;;;;20.67;51.51;100238.38;5025127;28;20037;-84
2021/09/09 08:14:18;;;;;;;20.48;12.77;;;;;;;20.14;52.00;100244.91;5020255;28;20042;-84
2021/09/09 08:16:45;;;;;;;14.15;12.70;;;;;;;20.21;52.27;100247.84;5022394;28;20042;-85
2021/09/09 08:19:11;;;;;;;28.85;13.90;;;;;;;20.55;51.70;100236.84;5022673;28;20038;-82
2021/09/09 08:21:38;;;;;;;17.45;14.15;;;;;;;20.60;51.42;100239.91;5022424;28;20554;-83
2021/09/09 08:24:06;;;;;;;16.95;15.07;;;;;;;20.71;51.48;100244.22;5021385;28;20137;-82
2021/09/09 08:26:32;;;;;;;18.90;11.82;;;;;;;21.21;50.08;100242.13;5025695;28;20045;-81
2021/09/09 08:28:59;;;;;;;20.05;13.05;;;;;;;21.26;50.32;100242.53;5022590;28;20061;-82
2021/09/09 08:31:28;;;;;;;17.23;13.80;;;;;;;20.78;51.33;100242.69;5024639;28;20043;-84
2021/09/09 08:33:56;;;;;;;18.27;12.93;;;;;;;21.28;49.70;100250.34;5021283;28;20489;-83
2021/09/09 08:36:24;;;;;;;14.32;12.43;;;;;;;21.29;49.49;100247.53;5024648;28;20120;-81
2021/09/09 08:38:51;;;;;;;23.27;12.00;;;;;;;21.16;49.63;100249.69;5014971;28;20096;-81
2021/09/09 08:41:18;;;;;;;19.02;11.30;;;;;;;21.49;48.64;100255.44;5023395;28;20087;-85
2021/09/09 08:43:45;;;;;;;12.90;10.77;;;;;;;21.73;47.99;100253.06;5023782;28;20043;-81
2021/09/09 08:46:16;;;;;;;15.63;10.25;;;;;;;21.49;48.44;100250.97;5027548;28;20115;-81
2021/09/09 08:48:45;;;;;;;16.77;11.90;;;;;;;21.41;48.33;100251.72;5028145;28;20037;-79
2021/09/09 08:51:16;;;;;;;15.98;11.48;;;;;;;21.14;48.95;100246.34;5023153;28;20057;-77
2021/09/09 08:53:44;;;;;;;17.98;10.27;;;;;;;21.28;48.53;100247.69;5031624;28;20037;-78
2021/09/09 08:56:15;;;;;;;24.50;13.73;;;;;;;21.63;47.72;100250.50;5026983;28;20111;-79
2021/09/09 08:58:42;;;;;;;18.23;11.57;;;;;;;21.80;47.33;100251.53;5028173;28;20041;-79
2021/09/09 09:01:12;;;;;;;12.65;10.98;;;;;;;21.74;47.26;100241.50;5027096;28;20136;-82
2021/09/09 09:04:11;;;;;;;21.13;12.68;;;;;;;22.07;46.85;100241.84;5032125;28;20049;-85
2021/09/09 09:06:38;;;;;;;16.05;13.85;;;;;;;21.80;47.58;100240.06;5024456;28;20200;-80
2021/09/09 09:09:12;;;;;;;30.77;12.48;;;;;;;21.97;47.43;100240.09;5024553;28;20069;-82
2021/09/09 09:11:44;;;;;;;34.15;12.95;;;;;;;22.14;46.94;100234.97;5033711;28;20431;-80
2021/09/09 09:14:17;;;;;;;25.63;11.60;;;;;;;22.28;46.46;100229.13;5022104;28;20045;-77
2021/09/09 09:16:53;;;;;;;15.90;12.00;;;;;;;22.27;46.59;100227.47;5010477;28;20052;-79
2021/09/09 09:19:25;;;;;;;16.10;10.77;;;;;;;22.49;45.50;100221.69;5027487;28;20121;-79
2021/09/09 09:22:08;;;;;;;15.15;10.80;;;;;;;22.57;45.28;100222.72;5026931;28;20507;-80
2021/09/09 09:24:49;;;;;;;14.07;11.10;;;;;;;22.58;44.79;100225.22;5027828;28;20377;-78
2021/09/09 09:27:18;;;;;;;15.05;10.45;;;;;;;22.59;45.04;100216.28;5034023;28;20077;-79
2021/09/09 09:30:08;;;;;;;17.27;12.15;;;;;;;22.58;45.16;100213.75;5032407;28;20100;-80
2021/09/09 09:32:44;;;;;;;19.42;11.13;;;;;;;22.86;44.55;100211.81;5027333;28;20034;-80
2021/09/09 09:35:13;;;;;;;16.20;14.00;;;;;;;22.62;45.47;100210.63;5027874;28;20488;-81
2021/09/09 09:37:49;;;;;;;26.33;16.58;;;;;;;22.68;45.92;100210.00;5027954;28;20045;-81
2021/09/09 09:40:32;;;;;;;16.85;13.90;;;;;;;22.95;45.41;100208.22;5029443;28;20037;-80
2021/09/09 09:43:05;;;;;;;16.15;14.25;;;;;;;22.98;44.92;100208.75;5026089;28;20148;-81
2021/09/09 09:45:32;;;;;;;19.60;12.45;;;;;;;23.15;43.21;100200.84;5028596;28;20030;-81
2021/09/09 09:47:59;;;;;;;12.93;11.48;;;;;;;23.42;42.36;100202.47;5030841;28;20432;-86
2021/09/09 09:50:38;;;;;;;17.08;12.07;;;;;;;23.23;41.69;100201.75;5030066;28;20046;-83
2021/09/09 09:53:16;;;;;;;15.38;11.05;;;;;;;23.24;41.92;100206.06;5028895;28;20046;-84
2021/09/09 09:55:44;;;;;;;15.32;11.35;;;;;;;23.19;41.86;100202.22;5032594;28;20515;-81
2021/09/09 09:58:12;;;;;;;14.77;9.65;;;;;;;23.58;41.21;100201.69;5026104;28;20042;-85
2021/09/09 10:00:39;;;;;;;22.40;11.77;;;;;;;23.49;41.45;100196.38;5027435;28;20125;-81
2021/09/09 10:03:06;;;;;;;10.68;9.50;;;;;;;23.68;40.24;100186.47;5023030;28;20073;-81
2021/09/09 10:05:37;;;;;;;24.75;10.52;;;;;;;23.88;40.49;100195.81;5031385;28;20047;-83
2021/09/09 10:08:07;;;;;;;15.18;9.98;;;;;;;23.89;40.04;100189.50;5033393;28;20049;-84
2021/09/09 10:10:34;;;;;;;12.35;9.00;;;;;;;24.16;38.77;100180.38;5027691;28;20072;-81
2021/09/09 10:13:01;;;;;;;11.15;7.72;;;;;;;23.96;37.82;100181.69;5029389;28;20151;-85
2021/09/09 10:15:34;;;;;;;12.10;8.20;;;;;;;24.30;37.59;100176.22;5026582;28;20098;-81
2021/09/09 10:18:02;;;;;;;12.95;8.65;;;;;;;24.40;38.12;100171.59;5027201;28;20041;-86
2021/09/09 10:20:36;;;;;;;11.30;8.40;;;;;;;24.59;38.23;100174.88;5020417;28;20056;-80
2021/09/09 10:23:09;;;;;;;13.27;9.90;;;;;;;24.66;38.37;100170.53;5027933;28;20684;-91
2021/09/09 10:25:54;;;;;;;12.05;9.00;;;;;;;24.61;38.26;100175.53;5029434;28;20060;-80
2021/09/09 10:28:43;;;;;;;9.15;8.25;;;;;;;24.39;37.06;100174.38;5032580;28;20045;-87
2021/09/09 10:31:24;;;;;;;13.27;9.57;;;;;;;24.24;37.42;100166.22;5033956;28;20034;-87
2021/09/09 10:33:52;;;;;;;12.23;7.93;;;;;;;24.14;37.39;100168.22;5035403;28;20132;-86
2021/09/09 10:36:45;;;;;;;9.60;7.85;;;;;;;24.25;37.21;100171.38;5034310;28;20041;-86
2021/09/09 10:39:20;;;;;;;8.32;7.25;;;;;;;24.61;35.97;100164.88;5018440;28;20034;-92
2021/09/09 10:41:48;;;;;;;10.27;7.80;;;;;;;24.38;36.00;100152.25;5041637;28;20053;-87
2021/09/09 10:44:15;;;;;;;11.43;6.68;;;;;;;24.43;34.17;100146.41;5030358;28;20492;-92
2021/09/09 10:46:45;;;;;;;7.10;6.40;;;;;;;25.15;32.86;100154.44;5025684;28;20053;-91
2021/09/09 10:49:21;;;;;;;11.45;7.38;;;;;;;25.23;34.22;100144.53;5017024;28;20069;-91
2021/09/09 10:52:06;;;;;;;12.75;8.10;;;;;;;24.83;35.44;100135.69;5030156;28;20069;-91
2021/09/09 10:55:01;;;;;;;8.40;6.57;;;;;;;24.82;34.22;100138.50;5036662;28;20045;-87
2021/09/09 10:57:28;;;;;;;11.10;6.93;;;;;;;25.00;34.14;100133.78;5030426;28;20053;-85
2021/09/09 10:59:55;;;;;;;11.20;7.03;;;;;;;25.14;33.96;100131.41;5036259;28;20045;-88
2021/09/09 11:02:22;;;;;;;8.18;6.78;;;;;;;25.34;32.92;100127.31;5031200;28;20127;-81
2021/09/09 11:04:50;;;;;;;7.47;6.72;;;;;;;25.39;33.23;100124.94;5022249;28;20042;-86
2021/09/09 11:07:22;;;;;;;10.48;6.95;;;;;;;25.08;33.17;100122.28;5027166;28;20132;-79
2021/09/09 11:10:09;;;;;;;12.95;5.82;;;;;;;25.43;32.74;100125.44;5019647;28;20037;-85
2021/09/09 11:12:56;;;;;;;10.07;6.75;;;;;;;25.51;31.87;100136.88;5026998;28;20477;-81
2021/09/09 11:15:31;;;;;;;8.07;6.57;;;;;;;25.47;32.74;100122.25;5026376;28;20061;-78
2021/09/09 11:17:59;;;;;;;9.02;6.75;;;;;;;25.75;32.97;100125.25;5046028;28;20057;-87
2021/09/09 11:20:31;;;;;;;8.82;6.97;;;;;;;25.35;33.50;100118.28;5036330;28;20044;-85
2021/09/09 11:23:10;;;;;;;7.95;6.47;;;;;;;25.37;33.19;100121.66;5054064;28;20057;-90